createdAt,value
2019-05-21T00:01:34.686Z,100.00
2019-05-21T00:04:05.062Z,100.00
2019-05-21T00:06:35.297Z,100.00
2019-05-21T00:09:06.473Z,100.00
2019-05-21T00:11:36.813Z,100.00
2019-05-21T00:14:06.991Z,100.00
2019-05-21T00:16:37.383Z,100.00
2019-05-21T00:19:07.896Z,100.00
2019-05-21T00:21:38.249Z,100.00
2019-05-21T00:24:08.454Z,100.00
2019-05-21T00:26:38.664Z,100.00
2019-05-21T00:29:44.801Z,100.00
2019-05-21T00:32:50.868Z,100.00
2019-05-21T00:35:57.109Z,100.00
2019-05-21T00:39:04.935Z,100.00
2019-05-21T00:42:01.163Z,100.00
2019-05-21T00:44:38.432Z,100.00
2019-05-21T00:47:15.362Z,100.00
2019-05-21T00:49:45.548Z,100.00
2019-05-21T00:52:15.699Z,100.00
2019-05-21T00:54:46.006Z,100.00
2019-05-21T00:57:16.395Z,100.00
2019-05-21T00:59:48.024Z,100.00
2019-05-21T01:02:20.940Z,100.00
2019-05-21T01:05:00.423Z,100.00
2019-05-21T01:07:23.487Z,100.00
2019-05-21T01:09:56.595Z,100.00
2019-05-21T01:12:27.162Z,100.00
2019-05-21T01:14:57.366Z,100.00
2019-05-21T01:17:27.585Z,100.00
2019-05-21T01:19:57.720Z,100.00
2019-05-21T01:22:27.869Z,100.00
2019-05-21T01:24:58.016Z,100.00
2019-05-21T01:27:28.131Z,100.00
2019-05-21T01:29:58.449Z,100.00
2019-05-21T01:32:28.667Z,100.00
2019-05-21T01:35:16.028Z,100.00
2019-05-21T01:37:33.600Z,100.00
2019-05-21T01:40:03.874Z,100.00
2019-05-21T01:42:34.534Z,100.00
2019-05-21T01:45:05.354Z,100.00
2019-05-21T01:47:35.605Z,100.00
2019-05-21T01:50:05.951Z,100.00
2019-05-21T01:52:36.233Z,100.00
2019-05-21T01:55:06.495Z,100.00
2019-05-21T01:57:36.655Z,100.00
2019-05-21T02:00:07.172Z,100.00
2019-05-21T02:02:39.745Z,100.00
2019-05-21T02:05:10.082Z,100.00
2019-05-21T02:07:40.966Z,100.00
2019-05-21T02:10:11.420Z,100.00
2019-05-21T02:12:41.545Z,100.00
2019-05-21T02:15:12.320Z,100.00
2019-05-21T02:17:48.033Z,100.00
2019-05-21T02:20:20.379Z,100.00
2019-05-21T02:22:51.398Z,100.00
2019-05-21T02:25:22.040Z,100.00
2019-05-21T02:27:52.253Z,100.00
2019-05-21T02:30:22.810Z,100.00
2019-05-21T02:32:53.009Z,100.00
2019-05-21T02:35:23.112Z,100.00
2019-05-21T02:37:55.961Z,100.00
2019-05-21T02:40:27.228Z,100.00
2019-05-21T02:42:57.504Z,100.00
2019-05-21T02:45:27.841Z,100.00
2019-05-21T02:47:58.202Z,100.00
2019-05-21T02:50:28.375Z,100.00
2019-05-21T02:52:58.917Z,100.00
2019-05-21T02:55:29.319Z,100.00
2019-05-21T02:57:59.989Z,100.00
2019-05-21T03:00:48.061Z,100.00
2019-05-21T03:03:20.677Z,100.00
2019-05-21T03:05:50.781Z,100.00
2019-05-21T03:08:20.936Z,100.00
2019-05-21T03:10:51.099Z,100.00
2019-05-21T03:13:21.600Z,100.00
2019-05-21T03:15:52.170Z,100.00
2019-05-21T03:18:22.673Z,100.00
2019-05-21T03:20:52.898Z,100.00
2019-05-21T03:23:26.246Z,100.00
2019-05-21T03:25:56.339Z,100.00
2019-05-21T03:28:26.564Z,100.00
2019-05-21T03:30:56.729Z,100.00
2019-05-21T03:33:27.932Z,100.00
2019-05-21T03:35:58.305Z,100.00
2019-05-21T03:38:28.868Z,100.00
2019-05-21T03:41:00.942Z,100.00
2019-05-21T03:43:31.585Z,100.00
2019-05-21T03:46:01.723Z,100.00
2019-05-21T03:48:32.179Z,100.00
2019-05-21T03:51:02.295Z,100.00
2019-05-21T03:53:32.573Z,100.00
2019-05-21T03:56:02.806Z,100.00
2019-05-21T03:58:33.000Z,100.00
2019-05-21T04:01:03.186Z,100.00
2019-05-21T04:03:33.430Z,100.00
2019-05-21T04:06:04.175Z,100.00
2019-05-21T04:08:34.494Z,100.00
2019-05-21T04:11:05.926Z,100.00
2019-05-21T04:13:37.599Z,100.00
2019-05-21T04:16:25.695Z,100.00
2019-05-21T04:19:05.978Z,100.00
2019-05-21T04:21:36.461Z,100.00
2019-05-21T04:24:09.057Z,100.00
2019-05-21T04:26:39.889Z,100.00
2019-05-21T04:29:10.049Z,100.00
2019-05-21T04:31:40.435Z,100.00
2019-05-21T04:34:10.580Z,100.00
2019-05-21T04:36:40.923Z,100.00
2019-05-21T04:39:11.234Z,100.00
2019-05-21T04:41:44.024Z,100.00
2019-05-21T04:44:14.428Z,100.00
2019-05-21T04:46:44.772Z,100.00
2019-05-21T04:49:15.008Z,100.00
2019-05-21T04:51:45.154Z,100.00
2019-05-21T04:54:16.844Z,100.00
2019-05-21T04:56:47.194Z,100.00
2019-05-21T04:59:17.523Z,100.00
2019-05-21T05:01:47.696Z,100.00
2019-05-21T05:04:21.962Z,100.00
2019-05-21T05:06:49.857Z,100.00
2019-05-21T05:09:20.015Z,100.00
2019-05-21T05:11:50.337Z,100.00
2019-05-21T05:14:20.648Z,100.00
2019-05-21T05:16:51.906Z,100.00
2019-05-21T05:19:22.071Z,100.00
2019-05-21T05:21:52.215Z,100.00
2019-05-21T05:24:22.566Z,100.00
2019-05-21T05:26:54.367Z,100.00
2019-05-21T05:29:24.932Z,100.00
2019-05-21T05:31:55.072Z,100.00
2019-05-21T05:34:25.343Z,100.00
2019-05-21T05:36:55.563Z,100.00
2019-05-21T05:39:25.676Z,100.00
2019-05-21T05:41:55.834Z,100.00
2019-05-21T05:44:30.912Z,100.00
2019-05-21T05:47:01.199Z,100.00
2019-05-21T05:49:38.670Z,100.00
2019-05-21T05:52:08.912Z,100.00
2019-05-21T05:54:39.411Z,100.00
2019-05-21T05:57:09.739Z,100.00
2019-05-21T05:59:40.016Z,100.00
2019-05-21T06:02:10.181Z,100.00
2019-05-21T06:04:40.363Z,100.00
2019-05-21T06:07:10.987Z,100.00
2019-05-21T06:09:41.288Z,100.00
2019-05-21T06:12:11.607Z,100.00
2019-05-21T06:14:43.015Z,100.00
2019-05-21T06:17:13.173Z,100.00
2019-05-21T06:19:43.357Z,100.00
2019-05-21T06:22:13.746Z,100.00
2019-05-21T06:24:43.932Z,100.00
2019-05-21T06:27:14.224Z,100.00
2019-05-21T06:29:44.864Z,100.00
2019-05-21T06:32:15.073Z,100.00
2019-05-21T06:34:48.621Z,100.00
2019-05-21T06:37:17.474Z,100.00
2019-05-21T06:39:48.011Z,100.00
2019-05-21T06:42:18.373Z,100.00
2019-05-21T06:44:51.017Z,100.00
2019-05-21T06:47:21.334Z,100.00
2019-05-21T06:49:51.567Z,100.00
2019-05-21T06:52:21.858Z,100.00
2019-05-21T06:54:51.925Z,100.00
2019-05-21T06:57:22.196Z,100.00
2019-05-21T06:59:52.322Z,100.00
2019-05-21T07:02:22.663Z,100.00
2019-05-21T07:04:53.505Z,100.00
2019-05-21T07:07:24.781Z,100.00
2019-05-21T07:09:55.025Z,100.00
2019-05-21T07:12:25.258Z,100.00
2019-05-21T07:14:55.597Z,100.00
2019-05-21T07:17:25.843Z,100.00
2019-05-21T07:19:56.016Z,100.00
2019-05-21T07:22:26.324Z,100.00
2019-05-21T07:24:57.029Z,100.00
2019-05-21T07:27:27.326Z,100.00
2019-05-21T07:29:57.565Z,100.00
2019-05-21T07:32:27.740Z,100.00
2019-05-21T07:34:57.974Z,100.00
2019-05-21T07:37:28.261Z,100.00
2019-05-21T07:39:58.393Z,100.00
2019-05-21T07:42:28.827Z,100.00
2019-05-21T07:44:59.078Z,100.00
2019-05-21T07:47:29.278Z,100.00
2019-05-21T07:49:59.379Z,100.00
2019-05-21T07:52:29.636Z,100.00
2019-05-21T07:55:00.228Z,100.00
2019-05-21T07:57:30.446Z,100.00
2019-05-21T08:00:00.796Z,100.00
2019-05-21T08:02:31.218Z,100.00
2019-05-21T08:05:02.318Z,100.00
2019-05-21T08:07:33.415Z,100.00
2019-05-21T08:10:03.827Z,100.00
2019-05-21T08:12:39.393Z,100.00
2019-05-21T08:15:09.686Z,100.00
2019-05-21T08:17:40.035Z,100.00
2019-05-21T08:20:11.253Z,100.00
2019-05-21T08:22:41.493Z,100.00
2019-05-21T08:25:14.467Z,100.00
2019-05-21T08:27:43.761Z,100.00
2019-05-21T08:30:14.847Z,100.00
2019-05-21T08:32:45.205Z,100.00
2019-05-21T08:35:15.541Z,100.00
2019-05-21T08:37:45.623Z,99.80
2019-05-21T08:40:16.532Z,100.00
2019-05-21T08:42:46.776Z,100.00
2019-05-21T08:45:17.385Z,99.12
2019-05-21T08:47:47.649Z,99.11
2019-05-21T08:50:17.841Z,99.31
2019-05-21T08:52:48.504Z,98.24
2019-05-21T08:55:18.781Z,99.04
2019-05-21T08:58:05.769Z,98.23
2019-05-21T09:00:22.222Z,98.65
2019-05-21T09:02:52.751Z,98.74
2019-05-21T09:05:23.497Z,98.88
2019-05-21T09:07:55.026Z,98.89
2019-05-21T09:10:25.258Z,98.65
2019-05-21T09:12:55.504Z,98.38
2019-05-21T09:15:25.843Z,98.32
2019-05-21T09:17:55.983Z,98.50
2019-05-21T09:20:26.498Z,98.09
2019-05-21T09:22:56.892Z,98.62
2019-05-21T09:25:28.035Z,98.28
2019-05-21T09:27:58.488Z,99.15
2019-05-21T09:30:28.865Z,99.33
2019-05-21T09:32:59.391Z,99.52
2019-05-21T09:35:31.096Z,99.46
2019-05-21T09:38:01.281Z,99.94
2019-05-21T09:40:32.250Z,100.00
2019-05-21T09:43:02.562Z,100.00
2019-05-21T09:45:32.728Z,99.89
2019-05-21T09:48:02.940Z,100.00
2019-05-21T09:50:34.764Z,100.00
2019-05-21T09:53:05.127Z,100.00
2019-05-21T09:55:35.427Z,100.00
2019-05-21T09:58:34.034Z,100.00
2019-05-21T10:01:25.691Z,100.00
2019-05-21T10:03:59.311Z,100.00
2019-05-21T10:06:29.946Z,99.96
2019-05-21T10:09:00.077Z,100.00
2019-05-21T10:11:30.269Z,100.00
2019-05-21T10:14:00.591Z,99.64
2019-05-21T10:16:30.836Z,99.66
2019-05-21T10:19:01.068Z,99.78
2019-05-21T10:21:31.595Z,100.00
2019-05-21T10:24:02.037Z,100.00
2019-05-21T10:26:32.629Z,100.00
2019-05-21T10:29:03.186Z,100.00
2019-05-21T10:31:33.598Z,100.00
2019-05-21T10:34:04.100Z,100.00
2019-05-21T10:36:34.355Z,100.00
2019-05-21T10:39:06.206Z,100.00
2019-05-21T10:41:36.431Z,100.00
2019-05-21T10:44:07.956Z,100.00
2019-05-21T10:46:38.713Z,100.00
2019-05-21T10:49:08.871Z,100.00
2019-05-21T10:51:41.182Z,100.00
2019-05-21T10:54:11.442Z,100.00
2019-05-21T10:56:47.913Z,100.00
2019-05-21T10:59:14.747Z,100.00
2019-05-21T11:01:55.025Z,100.00
2019-05-21T11:04:32.625Z,100.00
2019-05-21T11:07:02.965Z,100.00
2019-05-21T11:09:33.803Z,100.00
2019-05-21T11:12:06.256Z,100.00
2019-05-21T11:14:36.444Z,100.00
2019-05-21T11:17:09.683Z,100.00
2019-05-21T11:19:39.819Z,100.00
2019-05-21T11:22:10.247Z,100.00
2019-05-21T11:24:40.427Z,100.00
2019-05-21T11:27:11.289Z,100.00
2019-05-21T11:29:41.600Z,100.00
2019-05-21T11:32:12.222Z,100.00
2019-05-21T11:34:42.804Z,100.00
2019-05-21T11:37:13.193Z,100.00
2019-05-21T11:39:43.900Z,100.00
2019-05-21T11:42:14.464Z,100.00
2019-05-21T11:44:44.799Z,100.00
2019-05-21T11:47:15.056Z,100.00
2019-05-21T11:49:45.975Z,100.00
2019-05-21T11:52:16.341Z,100.00
2019-05-21T11:54:47.135Z,100.00
2019-05-21T11:57:17.682Z,99.96
2019-05-21T11:59:48.479Z,100.00
2019-05-21T12:02:18.945Z,100.00
2019-05-21T12:04:49.771Z,100.00
2019-05-21T12:07:21.398Z,99.12
2019-05-21T12:09:52.099Z,98.79
2019-05-21T12:12:22.706Z,98.29
2019-05-21T12:14:53.194Z,98.25
2019-05-21T12:17:23.872Z,98.51
2019-05-21T12:19:54.212Z,97.37
2019-05-21T12:22:24.913Z,97.96
2019-05-21T12:24:55.529Z,98.05
2019-05-21T12:27:25.903Z,98.05
2019-05-21T12:29:56.593Z,98.24
2019-05-21T12:32:27.548Z,98.71
2019-05-21T12:34:59.356Z,98.12
2019-05-21T12:37:30.199Z,97.81
2019-05-21T12:40:00.740Z,98.36
2019-05-21T12:42:31.152Z,98.81
2019-05-21T12:45:03.657Z,98.95
2019-05-21T12:47:34.152Z,98.90
2019-05-21T12:50:05.259Z,99.05
2019-05-21T12:52:36.254Z,99.21
2019-05-21T12:55:06.918Z,98.16
2019-05-21T12:57:38.236Z,98.35
2019-05-21T13:00:12.712Z,97.63
2019-05-21T13:02:43.342Z,97.55
2019-05-21T13:05:14.259Z,97.08
2019-05-21T13:07:45.445Z,96.23
2019-05-21T13:10:17.574Z,96.07
2019-05-21T13:12:51.500Z,96.53
2019-05-21T13:15:22.301Z,97.30
2019-05-21T13:17:52.978Z,96.25
2019-05-21T13:20:23.612Z,96.38
2019-05-21T13:22:54.708Z,96.28
2019-05-21T13:25:25.055Z,95.71
2019-05-21T13:27:57.755Z,94.31
2019-05-21T13:30:30.769Z,95.17
2019-05-21T13:33:01.199Z,94.61
2019-05-21T13:35:31.567Z,94.05
2019-05-21T13:38:02.267Z,94.95
2019-05-21T13:40:33.555Z,95.62
2019-05-21T13:43:04.091Z,96.07
2019-05-21T13:45:34.587Z,96.50
2019-05-21T13:48:05.312Z,96.11
2019-05-21T13:50:35.844Z,96.46
2019-05-21T13:53:06.670Z,96.42
2019-05-21T13:55:37.113Z,96.76
2019-05-21T13:58:07.883Z,96.46
2019-05-21T14:00:42.257Z,95.99
2019-05-21T14:03:14.930Z,95.99
2019-05-21T14:05:45.754Z,95.91
2019-05-21T14:08:16.296Z,93.88
2019-05-21T14:10:47.118Z,94.18
2019-05-21T14:13:17.352Z,94.29
2019-05-21T14:15:49.041Z,94.81
2019-05-21T14:18:19.379Z,95.27
2019-05-21T14:20:49.855Z,94.76
2019-05-21T14:23:20.669Z,93.19
2019-05-21T14:25:50.959Z,92.74
2019-05-21T14:28:21.357Z,92.75
2019-05-21T14:30:51.901Z,93.69
2019-05-21T14:33:22.613Z,92.83
2019-05-21T14:35:52.806Z,93.00
2019-05-21T14:38:23.258Z,92.82
2019-05-21T14:40:53.871Z,92.80
2019-05-21T14:43:24.260Z,92.63
2019-05-21T14:45:57.529Z,93.28
2019-05-21T14:48:27.860Z,93.73
2019-05-21T14:50:58.376Z,94.13
2019-05-21T14:53:29.086Z,94.07
2019-05-21T14:55:59.366Z,93.89
2019-05-21T14:58:29.926Z,93.97
2019-05-21T15:01:00.442Z,93.80
2019-05-21T15:03:32.780Z,93.50
2019-05-21T15:06:03.073Z,93.27
2019-05-21T15:08:33.381Z,93.56
2019-05-21T15:11:03.918Z,93.13
2019-05-21T15:13:34.224Z,93.64
2019-05-21T15:16:04.797Z,93.79
2019-05-21T15:27:54.565Z,94.18
2019-05-21T15:30:25.893Z,94.47
2019-05-21T15:32:56.252Z,94.75
2019-05-21T15:35:26.500Z,93.67
2019-05-21T15:37:56.629Z,93.56
2019-05-21T15:40:26.863Z,93.53
2019-05-21T15:42:57.038Z,93.60
2019-05-21T15:45:27.642Z,93.79
2019-05-21T15:47:58.128Z,93.14
2019-05-21T15:50:31.464Z,93.51
2019-05-21T15:53:01.665Z,94.34
2019-05-21T15:55:31.995Z,94.15
2019-05-21T15:58:02.208Z,94.44
2019-05-21T16:00:33.761Z,94.84
2019-05-21T16:03:04.402Z,95.30
2019-05-21T16:05:34.751Z,95.33
2019-05-21T16:08:05.710Z,95.90
2019-05-21T16:10:37.993Z,95.66
2019-05-21T16:13:08.220Z,96.36
2019-05-21T16:15:38.826Z,96.12
2019-05-21T16:18:09.264Z,96.66
2019-05-21T16:20:42.470Z,96.33
2019-05-21T16:23:11.864Z,96.63
2019-05-21T16:25:42.312Z,97.64
2019-05-21T16:28:13.138Z,96.57
2019-05-21T16:30:43.437Z,96.45
2019-05-21T16:33:14.063Z,96.45
2019-05-21T16:35:44.675Z,96.59
2019-05-21T16:38:16.716Z,96.42
2019-05-21T16:40:47.098Z,97.26
2019-05-21T16:43:17.425Z,96.74
2019-05-21T16:45:50.270Z,96.85
2019-05-21T16:48:22.458Z,97.28
2019-05-21T16:50:52.732Z,97.77
2019-05-21T16:53:23.054Z,97.81
2019-05-21T16:55:56.381Z,98.11
2019-05-21T16:58:27.051Z,98.12
2019-05-21T17:00:57.552Z,98.22
2019-05-21T17:03:27.882Z,97.99
2019-05-21T17:05:58.838Z,98.41
2019-05-21T17:08:29.136Z,98.90
2019-05-21T17:11:00.137Z,99.14
2019-05-21T17:13:30.701Z,99.87
2019-05-21T17:16:03.867Z,99.76
2019-05-21T17:18:34.454Z,100.00
2019-05-21T17:21:04.654Z,100.00
2019-05-21T17:23:35.428Z,100.00
2019-05-21T17:26:08.997Z,100.00
2019-05-21T17:28:40.413Z,100.00
2019-05-21T17:31:12.387Z,100.00
2019-05-21T17:33:42.864Z,100.00
2019-05-21T17:36:13.353Z,100.00
2019-05-21T17:38:45.215Z,100.00
2019-05-21T17:41:15.562Z,100.00
2019-05-21T17:43:46.255Z,100.00
2019-05-21T17:46:16.653Z,100.00
2019-05-21T17:48:46.949Z,100.00
2019-05-21T17:51:17.657Z,100.00
2019-05-21T17:53:48.323Z,100.00
2019-05-21T17:56:18.806Z,100.00
2019-05-21T17:58:49.279Z,100.00
2019-05-21T18:01:20.545Z,100.00
2019-05-21T18:03:50.951Z,100.00
2019-05-21T18:06:21.352Z,100.00
2019-05-21T18:08:52.112Z,100.00
2019-05-21T18:11:23.978Z,100.00
2019-05-21T18:13:55.243Z,100.00
2019-05-21T18:16:26.479Z,100.00
2019-05-21T18:18:57.522Z,100.00
2019-05-21T18:21:28.667Z,100.00
2019-05-21T18:23:59.501Z,100.00
2019-05-21T18:26:30.295Z,100.00
2019-05-21T18:29:00.768Z,100.00
2019-05-21T18:31:31.549Z,100.00
2019-05-21T18:34:03.845Z,100.00
2019-05-21T18:36:34.637Z,100.00
2019-05-21T18:39:08.150Z,100.00
2019-05-21T18:41:39.062Z,100.00
2019-05-21T18:44:09.632Z,100.00
2019-05-21T18:46:40.577Z,100.00
2019-05-21T18:49:11.161Z,100.00
2019-05-21T18:51:41.813Z,100.00
2019-05-21T18:54:12.571Z,100.00
2019-05-21T18:56:43.560Z,100.00
2019-05-21T18:59:14.507Z,100.00
2019-05-21T19:01:45.683Z,100.00
2019-05-21T19:04:16.149Z,100.00
2019-05-21T19:06:47.572Z,100.00
2019-05-21T19:09:20.372Z,100.00
2019-05-21T19:11:51.143Z,100.00
2019-05-21T19:14:21.923Z,100.00
2019-05-21T19:16:52.595Z,100.00
2019-05-21T19:19:23.175Z,100.00
2019-05-21T19:21:53.746Z,100.00
2019-05-21T19:24:24.468Z,100.00
2019-05-21T19:26:54.952Z,100.00
2019-05-21T19:29:25.837Z,100.00
2019-05-21T19:31:56.251Z,100.00
2019-05-21T19:34:27.245Z,100.00
2019-05-21T19:37:01.276Z,100.00
2019-05-21T19:39:32.098Z,100.00
2019-05-21T19:42:02.653Z,100.00
2019-05-21T19:44:33.077Z,100.00
2019-05-21T19:47:05.048Z,100.00
2019-05-21T19:49:35.442Z,100.00
2019-05-21T19:52:06.323Z,100.00
2019-05-21T19:54:36.797Z,100.00
2019-05-21T19:57:07.574Z,100.00
2019-05-21T19:59:39.972Z,100.00
2019-05-21T20:02:12.264Z,100.00
2019-05-21T20:04:43.033Z,100.00
2019-05-21T20:07:16.897Z,100.00
2019-05-21T20:09:49.322Z,100.00
2019-05-21T20:12:20.359Z,100.00
2019-05-21T20:14:50.747Z,100.00
2019-05-21T20:17:21.703Z,100.00
2019-05-21T20:19:53.191Z,100.00
2019-05-21T20:22:26.338Z,100.00
2019-05-21T20:24:58.529Z,100.00
2019-05-21T20:27:30.378Z,100.00
2019-05-21T20:30:12.145Z,100.00
2019-05-21T20:32:36.187Z,100.00
2019-05-21T20:35:08.517Z,100.00
2019-05-21T20:37:40.540Z,100.00
2019-05-21T20:40:13.650Z,100.00
2019-05-21T20:42:44.734Z,100.00
2019-05-21T20:45:16.758Z,100.00
2019-05-21T20:47:47.161Z,100.00
2019-05-21T20:50:19.041Z,100.00
2019-05-21T20:52:51.063Z,100.00
2019-05-21T20:55:22.729Z,100.00
2019-05-21T20:57:53.148Z,100.00
2019-05-21T21:00:29.864Z,100.00
2019-05-21T21:03:01.170Z,100.00
2019-05-21T21:05:32.006Z,100.00
2019-05-21T21:08:02.609Z,100.00
2019-05-21T21:10:33.493Z,100.00
2019-05-21T21:13:04.985Z,100.00
2019-05-21T21:15:35.791Z,100.00
2019-05-21T21:18:06.792Z,100.00
2019-05-21T21:20:38.867Z,100.00
2019-05-21T21:23:09.130Z,100.00
2019-05-21T21:25:39.395Z,100.00
2019-05-21T21:28:10.637Z,100.00
2019-05-21T21:30:40.962Z,100.00
2019-05-21T21:33:12.587Z,100.00
2019-05-21T21:35:43.507Z,100.00
2019-05-21T21:38:17.348Z,100.00
2019-05-21T21:40:49.068Z,100.00
2019-05-21T21:43:21.057Z,100.00
2019-05-21T21:45:51.740Z,100.00
2019-05-21T21:48:22.004Z,100.00
2019-05-21T21:50:53.016Z,100.00
2019-05-21T21:53:23.397Z,100.00
2019-05-21T21:55:53.674Z,100.00
2019-05-21T21:58:23.889Z,100.00
2019-05-21T22:01:44.410Z,100.00
2019-05-21T22:04:16.507Z,100.00
2019-05-21T22:06:48.812Z,100.00
2019-05-21T22:09:33.630Z,100.00
2019-05-21T22:12:12.720Z,100.00
2019-05-21T22:14:50.941Z,100.00
2019-05-21T22:17:17.822Z,100.00
2019-05-21T22:19:48.336Z,100.00
2019-05-21T22:22:18.580Z,100.00
2019-05-21T22:24:49.418Z,100.00
2019-05-21T22:27:19.698Z,100.00
2019-05-21T22:29:49.907Z,100.00
2019-05-21T22:32:20.193Z,100.00
2019-05-21T22:34:50.352Z,100.00
2019-05-21T22:37:23.663Z,100.00
2019-05-21T22:39:54.343Z,100.00
2019-05-21T22:42:24.877Z,100.00
2019-05-21T22:45:07.235Z,100.00
2019-05-21T22:47:28.929Z,100.00
2019-05-21T22:49:59.118Z,100.00
2019-05-21T22:52:29.363Z,100.00
2019-05-21T22:54:59.598Z,100.00
2019-05-21T22:57:29.935Z,100.00
2019-05-21T23:00:00.207Z,100.00
2019-05-21T23:02:33.343Z,100.00
2019-05-21T23:05:03.814Z,100.00
2019-05-21T23:07:34.527Z,100.00
2019-05-21T23:10:06.305Z,100.00
2019-05-21T23:12:37.032Z,100.00
2019-05-21T23:15:23.228Z,100.00
2019-05-21T23:17:41.432Z,100.00
2019-05-21T23:20:14.141Z,100.00
2019-05-21T23:22:47.986Z,100.00
2019-05-21T23:25:19.252Z,100.00
2019-05-21T23:27:49.798Z,100.00
2019-05-21T23:30:20.464Z,100.00
2019-05-21T23:32:51.427Z,100.00
2019-05-21T23:35:22.537Z,100.00
2019-05-21T23:37:53.186Z,100.00
2019-05-21T23:40:24.511Z,100.00
2019-05-21T23:42:55.133Z,100.00
2019-05-21T23:45:25.610Z,100.00
2019-05-21T23:47:56.321Z,100.00
2019-05-21T23:50:28.212Z,100.00
2019-05-21T23:52:59.383Z,100.00
2019-05-21T23:55:29.840Z,100.00
2019-05-21T23:58:00.023Z,100.00
